Highland, Minnesota
Current Conditions -  °F | °C
As of 4:35 PM on Friday 28 Nov 2014 (Local Time) from KFKA Reporting Station
Scattered Clouds Scattered Clouds  
Wind Chill: 15°   Ceiling: Unl
Heat Index: 23°   Visibility: 10mi
Dew Point: 19°   Wind: 7mph
Humidity: 84%   Direction: 110°ESE
Pressure: 29.83"   Gusts: NA
Location:  43.7165°N, 91.9871°W
Report Text: KFKA 282235Z AUTO 11006KT 10SM SCT100 SCT120 M05/M07 A2983 RMK AO2 T10481071
Loading
Personal Weather Stations






























Interactive Weather Map New forecast layout! Learn more

10-Day Weather Forecast

Advertisements
Track Severe Weather on mobile